createdAt,value
2023-05-14T00:02:05.145Z,34.17
2023-05-14T00:04:33.376Z,33.70
2023-05-14T00:07:01.143Z,33.28
2023-05-14T00:09:30.880Z,32.33
2023-05-14T00:11:58.574Z,35.72
2023-05-14T00:14:26.350Z,35.45
2023-05-14T00:16:54.076Z,34.00
2023-05-14T00:19:21.693Z,34.83
2023-05-14T00:21:49.371Z,38.40
2023-05-14T00:24:17.470Z,34.55
2023-05-14T00:26:45.079Z,31.92
2023-05-14T00:29:12.880Z,31.15
2023-05-14T00:31:40.666Z,32.67
2023-05-14T00:34:08.342Z,31.73
2023-05-14T00:36:36.058Z,35.03
2023-05-14T00:39:03.838Z,37.88
2023-05-14T00:41:31.357Z,38.10
2023-05-14T00:43:59.124Z,43.58
2023-05-14T00:46:27.374Z,31.20
2023-05-14T00:48:55.531Z,33.97
2023-05-14T00:51:23.626Z,33.92
2023-05-14T00:53:52.495Z,36.72
2023-05-14T00:56:20.172Z,39.00
2023-05-14T00:58:47.958Z,35.08
2023-05-14T01:01:16.676Z,36.97
2023-05-14T01:03:45.017Z,41.75
2023-05-14T01:06:24.037Z,35.92
2023-05-14T01:09:06.673Z,37.67
2023-05-14T01:11:42.429Z,38.03
2023-05-14T01:14:34.510Z,42.40
2023-05-14T01:17:04.678Z,34.75
2023-05-14T01:19:45.324Z,35.53
2023-05-14T01:22:13.984Z,39.28
2023-05-14T01:24:41.674Z,35.03
2023-05-14T01:27:24.924Z,35.28
2023-05-14T01:30:13.874Z,34.25
2023-05-14T01:32:45.141Z,35.10
2023-05-14T01:35:14.374Z,33.47
2023-05-14T01:37:43.006Z,35.00
2023-05-14T01:40:14.060Z,35.53
2023-05-14T01:42:42.309Z,31.45
2023-05-14T01:45:10.589Z,32.53
2023-05-14T01:47:38.390Z,32.75
2023-05-14T01:50:06.640Z,31.67
2023-05-14T01:52:35.078Z,34.80
2023-05-14T01:55:02.740Z,32.50
2023-05-14T01:57:30.271Z,36.40
2023-05-14T01:59:57.896Z,37.40
2023-05-14T02:02:25.725Z,37.15
2023-05-14T02:04:53.550Z,34.00
2023-05-14T02:07:21.344Z,36.78
2023-05-14T02:09:48.952Z,34.67
2023-05-14T02:12:16.545Z,30.20
2023-05-14T02:14:44.055Z,32.83
2023-05-14T02:17:12.094Z,34.15
2023-05-14T02:19:39.586Z,35.53
2023-05-14T02:22:06.947Z,35.60
2023-05-14T02:24:34.897Z,33.78
2023-05-14T02:27:02.448Z,36.47
2023-05-14T02:29:30.111Z,38.85
2023-05-14T02:31:57.816Z,35.95
2023-05-14T02:34:25.964Z,37.53
2023-05-14T02:36:53.600Z,39.00
2023-05-14T02:39:22.493Z,40.65
2023-05-14T02:41:50.654Z,39.85
2023-05-14T02:44:18.447Z,37.42
2023-05-14T02:46:46.306Z,39.92
2023-05-14T02:49:14.063Z,43.40
2023-05-14T02:51:41.714Z,35.67
2023-05-14T02:54:09.548Z,42.15
2023-05-14T02:56:36.939Z,38.38
2023-05-14T02:59:04.778Z,42.45
2023-05-14T03:01:33.057Z,37.53
2023-05-14T03:04:01.184Z,36.88
2023-05-14T03:06:28.850Z,36.22
2023-05-14T03:08:56.427Z,36.80
2023-05-14T03:11:23.863Z,35.35
2023-05-14T03:13:51.597Z,41.05
2023-05-14T03:16:19.268Z,37.15
2023-05-14T03:18:47.004Z,41.38
2023-05-14T03:21:14.615Z,41.90
2023-05-14T03:23:42.214Z,37.05
2023-05-14T03:26:10.044Z,40.45
2023-05-14T03:28:37.652Z,38.92
2023-05-14T03:31:05.493Z,44.15
2023-05-14T03:33:33.136Z,43.38
2023-05-14T03:36:01.034Z,40.95
2023-05-14T03:38:28.684Z,39.22
2023-05-14T03:40:56.948Z,45.58
2023-05-14T03:43:24.371Z,45.50
2023-05-14T03:45:52.753Z,44.67
2023-05-14T03:48:20.977Z,41.10
2023-05-14T03:50:48.621Z,38.53
2023-05-14T03:53:17.000Z,43.55
2023-05-14T03:55:46.789Z,39.72
2023-05-14T03:58:15.138Z,46.45
2023-05-14T04:00:43.256Z,42.65
2023-05-14T04:03:12.050Z,49.50
2023-05-14T04:05:39.763Z,39.08
2023-05-14T04:08:07.686Z,41.95
2023-05-14T04:10:35.364Z,44.30
2023-05-14T04:13:02.931Z,48.72
2023-05-14T04:15:33.551Z,46.35
2023-05-14T04:18:01.129Z,41.90
2023-05-14T04:20:29.349Z,43.75
2023-05-14T04:22:56.976Z,42.35
2023-05-14T04:25:24.504Z,45.35
2023-05-14T04:27:52.037Z,44.42
2023-05-14T04:30:19.852Z,47.50
2023-05-14T04:32:48.108Z,47.85
2023-05-14T04:35:15.791Z,48.63
2023-05-14T04:37:43.434Z,52.58
2023-05-14T04:40:11.391Z,47.60
2023-05-14T04:42:39.455Z,54.53
2023-05-14T04:45:07.681Z,45.13
2023-05-14T04:47:35.362Z,58.72
2023-05-14T04:50:03.324Z,49.17
2023-05-14T04:52:30.984Z,53.28
2023-05-14T04:54:58.733Z,48.38
2023-05-14T04:57:26.618Z,48.03
2023-05-14T04:59:54.450Z,45.00
2023-05-14T05:02:22.451Z,52.15
2023-05-14T05:04:50.105Z,47.33
2023-05-14T05:07:17.766Z,51.00
2023-05-14T05:09:45.319Z,44.13
2023-05-14T05:12:12.953Z,55.38
2023-05-14T05:14:40.679Z,49.45
2023-05-14T05:17:08.722Z,47.63
2023-05-14T05:19:43.843Z,48.03
2023-05-14T05:22:12.036Z,44.47
2023-05-14T05:24:40.426Z,51.10
2023-05-14T05:27:08.124Z,44.63
2023-05-14T05:29:36.427Z,55.47
2023-05-14T05:32:04.644Z,53.38
2023-05-14T05:34:32.756Z,49.63
2023-05-14T05:37:00.295Z,48.75
2023-05-14T05:39:28.107Z,47.60
2023-05-14T05:41:56.041Z,51.25
2023-05-14T05:44:23.724Z,50.28
2023-05-14T05:46:51.375Z,46.95
2023-05-14T05:49:18.863Z,42.50
2023-05-14T05:51:46.549Z,49.25
2023-05-14T05:54:14.193Z,58.47
2023-05-14T05:56:42.156Z,43.45
2023-05-14T05:59:09.987Z,44.05
2023-05-14T06:01:37.951Z,48.67
2023-05-14T06:04:06.462Z,47.28
2023-05-14T06:06:33.996Z,53.20
2023-05-14T06:09:02.059Z,48.00
2023-05-14T06:11:29.553Z,48.03
2023-05-14T06:13:57.010Z,49.85
2023-05-14T06:16:24.710Z,52.20
2023-05-14T06:18:53.001Z,53.17
2023-05-14T06:21:20.739Z,48.10
2023-05-14T06:23:48.287Z,49.92
2023-05-14T06:26:15.885Z,58.00
2023-05-14T06:28:43.467Z,51.55
2023-05-14T06:31:11.216Z,55.13
2023-05-14T06:33:39.270Z,59.75
2023-05-14T06:36:07.978Z,50.97
2023-05-14T06:38:35.411Z,47.83
2023-05-14T06:41:03.214Z,50.13
2023-05-14T06:43:30.739Z,50.60
2023-05-14T06:45:58.155Z,52.25
2023-05-14T06:48:27.893Z,58.13
2023-05-14T06:50:55.832Z,48.25
2023-05-14T06:53:23.246Z,53.30
2023-05-14T06:55:50.829Z,54.92
2023-05-14T06:58:18.756Z,47.80
2023-05-14T07:00:46.112Z,55.05
2023-05-14T07:03:13.591Z,51.90
2023-05-14T07:05:41.403Z,50.88
2023-05-14T07:08:08.829Z,52.05
2023-05-14T07:10:36.296Z,49.85
2023-05-14T07:13:03.969Z,52.63
2023-05-14T07:15:31.722Z,52.40
2023-05-14T07:17:59.540Z,53.47
2023-05-14T07:20:27.331Z,49.22
2023-05-14T07:22:55.081Z,56.95
2023-05-14T07:25:22.724Z,51.47
2023-05-14T07:27:50.369Z,42.60
2023-05-14T07:30:17.817Z,49.20
2023-05-14T07:32:45.573Z,46.35
2023-05-14T07:35:13.111Z,48.67
2023-05-14T07:37:41.131Z,42.70
2023-05-14T07:40:09.360Z,46.95
2023-05-14T07:42:37.628Z,47.22
2023-05-14T07:45:05.974Z,48.00
2023-05-14T07:47:35.009Z,48.20
2023-05-14T07:50:03.574Z,48.55
2023-05-14T07:52:33.265Z,51.72
2023-05-14T07:55:01.471Z,49.45
2023-05-14T07:57:29.088Z,40.55
2023-05-14T07:59:56.949Z,42.92
2023-05-14T08:02:24.595Z,49.10
2023-05-14T08:04:52.244Z,56.17
2023-05-14T08:07:19.653Z,47.85
2023-05-14T08:09:47.237Z,51.92
2023-05-14T08:12:14.982Z,49.22
2023-05-14T08:14:42.547Z,49.38
2023-05-14T08:17:10.160Z,48.28
2023-05-14T08:19:37.781Z,48.67
2023-05-14T08:22:05.665Z,60.58
2023-05-14T08:24:33.213Z,47.65
2023-05-14T08:27:00.664Z,47.50
2023-05-14T08:29:28.434Z,46.22
2023-05-14T08:31:55.892Z,37.70
2023-05-14T08:34:23.430Z,38.63
2023-05-14T08:36:51.071Z,44.35
2023-05-14T08:39:18.489Z,41.78
2023-05-14T08:41:46.598Z,39.30
2023-05-14T08:44:18.791Z,38.38
2023-05-14T08:46:46.901Z,15.30
2023-05-14T08:49:42.751Z,40.00
2023-05-14T08:52:11.272Z,42.03
2023-05-14T08:54:40.190Z,31.48
2023-05-14T08:57:10.755Z,39.80
2023-05-14T08:59:38.575Z,37.17
2023-05-14T09:02:08.585Z,34.25
2023-05-14T09:04:37.285Z,36.63
2023-05-14T09:07:07.192Z,31.55
2023-05-14T09:09:35.392Z,33.00
2023-05-14T09:12:04.136Z,39.83
2023-05-14T09:14:33.632Z,35.55
2023-05-14T09:17:01.276Z,35.58
2023-05-14T09:19:29.017Z,37.83
2023-05-14T09:21:59.037Z,31.67
2023-05-14T09:24:29.545Z,35.58
2023-05-14T09:26:58.288Z,31.50
2023-05-14T09:29:26.783Z,37.15
2023-05-14T09:31:55.986Z,37.85
2023-05-14T09:34:32.208Z,34.35
2023-05-14T09:37:05.282Z,34.30
2023-05-14T09:39:33.994Z,31.80
2023-05-14T09:42:02.117Z,35.13
2023-05-14T09:44:29.732Z,37.42
2023-05-14T09:46:57.401Z,36.53
2023-05-14T09:49:25.133Z,35.15
2023-05-14T09:51:52.819Z,29.35
2023-05-14T09:54:20.630Z,33.97
2023-05-14T09:56:48.212Z,38.20
2023-05-14T09:59:15.725Z,34.22
2023-05-14T10:01:44.567Z,34.00
2023-05-14T10:04:13.530Z,38.00
2023-05-14T10:06:42.514Z,32.20
2023-05-14T10:09:16.782Z,34.25
2023-05-14T10:11:46.235Z,33.25
2023-05-14T10:14:35.994Z,29.60
2023-05-14T10:17:05.925Z,30.15
2023-05-14T10:19:37.419Z,35.83
2023-05-14T10:22:09.402Z,28.00
2023-05-14T10:24:39.018Z,27.88
2023-05-14T10:27:06.957Z,30.27
2023-05-14T10:29:36.516Z,28.98
2023-05-14T10:32:09.396Z,25.05
2023-05-14T10:34:44.100Z,26.10
2023-05-14T10:37:23.627Z,26.08
2023-05-14T10:39:52.314Z,25.17
2023-05-14T10:42:21.377Z,26.38
2023-05-14T10:44:58.360Z,24.15
2023-05-14T10:47:29.734Z,27.20
2023-05-14T10:50:03.390Z,27.77
2023-05-14T10:52:32.122Z,27.30
2023-05-14T10:55:03.678Z,25.33
2023-05-14T10:57:32.508Z,23.27
2023-05-14T11:00:01.768Z,23.85
2023-05-14T11:02:37.671Z,24.80
2023-05-14T11:05:11.126Z,24.80
2023-05-14T11:07:41.287Z,21.98
2023-05-14T11:10:10.987Z,25.85
2023-05-14T11:12:41.200Z,27.20
2023-05-14T11:15:11.204Z,23.08
2023-05-14T11:17:41.698Z,26.98
2023-05-14T11:20:10.581Z,25.65
2023-05-14T11:22:39.951Z,24.27
2023-05-14T11:25:09.431Z,28.95
2023-05-14T11:27:39.064Z,23.52
2023-05-14T11:30:12.554Z,27.13
2023-05-14T11:32:40.819Z,21.25
2023-05-14T11:35:08.742Z,26.13
2023-05-14T11:37:36.346Z,22.75
2023-05-14T11:40:09.993Z,22.50
2023-05-14T11:42:38.640Z,26.30
2023-05-14T11:45:06.950Z,21.95
2023-05-14T11:47:34.441Z,23.02
2023-05-14T11:50:02.082Z,21.38
2023-05-14T11:52:30.279Z,22.52
2023-05-14T11:54:57.815Z,23.10
2023-05-14T11:57:26.127Z,23.48
2023-05-14T11:59:57.856Z,19.65
2023-05-14T12:02:29.122Z,19.60
2023-05-14T12:04:57.803Z,18.20
2023-05-14T12:07:30.221Z,20.35
2023-05-14T12:10:01.807Z,17.25
2023-05-14T12:12:36.292Z,17.08
2023-05-14T12:15:13.970Z,18.23
2023-05-14T12:17:41.863Z,16.83
2023-05-14T12:20:11.252Z,17.95
2023-05-14T12:22:41.608Z,15.07
2023-05-14T12:25:13.806Z,16.13
2023-05-14T12:27:44.771Z,15.20
2023-05-14T12:30:21.387Z,14.15
2023-05-14T12:33:00.875Z,16.95
2023-05-14T12:35:28.425Z,13.32
2023-05-14T12:37:55.950Z,16.00
2023-05-14T12:40:23.741Z,14.32
2023-05-14T12:42:51.667Z,15.05
2023-05-14T12:45:19.458Z,16.52
2023-05-14T12:47:47.149Z,16.10
2023-05-14T12:50:14.808Z,13.10
2023-05-14T12:52:42.661Z,16.08
2023-05-14T12:55:11.090Z,14.55
2023-05-14T12:57:39.701Z,12.25
2023-05-14T13:00:13.043Z,12.73
2023-05-14T13:02:42.659Z,11.07
2023-05-14T13:05:14.636Z,9.50
2023-05-14T13:07:42.635Z,12.82
2023-05-14T13:10:11.507Z,12.00
2023-05-14T13:12:39.285Z,13.68
2023-05-14T13:15:07.373Z,9.18
2023-05-14T13:17:35.824Z,9.90
2023-05-14T13:20:04.744Z,12.73
2023-05-14T13:22:32.460Z,14.73
2023-05-14T13:25:00.240Z,12.73
2023-05-14T13:27:27.893Z,12.65
2023-05-14T13:29:55.720Z,11.40
2023-05-14T13:32:23.475Z,13.25
2023-05-14T13:34:51.224Z,13.45
2023-05-14T13:37:18.882Z,13.02
2023-05-14T13:39:46.510Z,11.45
2023-05-14T13:42:14.237Z,10.40
2023-05-14T13:44:42.106Z,10.85
2023-05-14T13:47:09.619Z,8.68
2023-05-14T13:49:37.281Z,12.65
2023-05-14T13:52:05.565Z,10.65
2023-05-14T13:54:33.145Z,9.15
2023-05-14T13:57:00.665Z,9.38
2023-05-14T13:59:28.972Z,8.75
2023-05-14T14:01:56.671Z,7.15
2023-05-14T14:04:28.769Z,9.25
2023-05-14T14:06:56.957Z,8.65
2023-05-14T14:09:24.735Z,9.40
2023-05-14T14:11:52.491Z,10.10
2023-05-14T14:14:20.081Z,8.98
2023-05-14T14:16:47.601Z,10.40
2023-05-14T14:19:16.414Z,8.77
2023-05-14T14:21:46.230Z,12.60
2023-05-14T14:24:13.843Z,10.20
2023-05-14T14:26:41.649Z,9.05
2023-05-14T14:29:09.273Z,9.30
2023-05-14T14:31:37.098Z,11.18
2023-05-14T14:34:04.902Z,10.82
2023-05-14T14:36:32.367Z,10.57
2023-05-14T14:38:59.904Z,11.60
2023-05-14T14:41:27.751Z,12.73
2023-05-14T14:43:55.341Z,9.15
2023-05-14T14:46:23.026Z,9.52
2023-05-14T14:48:51.222Z,9.95
2023-05-14T14:51:18.901Z,9.50
2023-05-14T14:53:46.504Z,10.25
2023-05-14T14:56:14.219Z,9.20
2023-05-14T14:58:41.727Z,9.75
2023-05-14T15:01:09.312Z,11.93
2023-05-14T15:03:36.896Z,8.25
2023-05-14T15:06:04.723Z,7.55
2023-05-14T15:08:32.267Z,7.68
2023-05-14T15:10:59.668Z,10.15
2023-05-14T15:13:27.430Z,5.72
2023-05-14T15:15:55.358Z,7.55
2023-05-14T15:18:23.128Z,8.13
2023-05-14T15:20:50.796Z,7.20
2023-05-14T15:23:18.788Z,8.82
2023-05-14T15:25:46.278Z,8.35
2023-05-14T15:28:14.047Z,7.88
2023-05-14T15:30:41.659Z,12.30
2023-05-14T15:33:09.554Z,10.57
2023-05-14T15:35:37.209Z,12.02
2023-05-14T15:38:04.945Z,11.13
2023-05-14T15:40:34.974Z,10.80
2023-05-14T15:43:02.682Z,8.13
2023-05-14T15:45:30.268Z,9.25
2023-05-14T15:47:57.877Z,10.73
2023-05-14T15:50:27.495Z,8.55
2023-05-14T15:52:55.250Z,8.60
2023-05-14T15:55:22.873Z,10.63
2023-05-14T15:57:50.366Z,10.38
2023-05-14T16:00:18.503Z,11.45
2023-05-14T16:02:46.164Z,8.93
2023-05-14T16:05:14.108Z,9.90
2023-05-14T16:07:42.932Z,10.32
2023-05-14T16:10:10.694Z,12.30
2023-05-14T16:12:38.198Z,10.23
2023-05-14T16:15:08.111Z,10.48
2023-05-14T16:17:36.053Z,12.15
2023-05-14T16:20:05.165Z,12.38
2023-05-14T16:22:34.690Z,10.13
2023-05-14T16:25:03.541Z,10.38
2023-05-14T16:27:32.014Z,9.27
2023-05-14T16:29:59.601Z,9.77
2023-05-14T16:32:27.705Z,9.90
2023-05-14T16:34:56.511Z,11.32
2023-05-14T16:37:24.351Z,7.57
2023-05-14T16:39:52.050Z,9.50
2023-05-14T16:42:19.700Z,11.65
2023-05-14T16:44:47.341Z,9.38
2023-05-14T16:47:14.936Z,10.20
2023-05-14T16:49:43.279Z,10.65
2023-05-14T16:52:10.926Z,13.60
2023-05-14T16:54:38.461Z,10.20
2023-05-14T16:57:06.002Z,9.73
2023-05-14T16:59:33.578Z,12.15
2023-05-14T17:02:02.020Z,10.57
2023-05-14T17:04:29.778Z,12.50
2023-05-14T17:06:57.747Z,9.15
2023-05-14T17:09:25.614Z,11.45
2023-05-14T17:11:53.431Z,9.40
2023-05-14T17:14:21.142Z,12.18
2023-05-14T17:16:48.896Z,9.90
2023-05-14T17:19:17.129Z,8.98
2023-05-14T17:21:44.793Z,13.18
2023-05-14T17:24:12.206Z,9.02
2023-05-14T17:26:39.756Z,9.48
2023-05-14T17:29:07.217Z,12.73
2023-05-14T17:31:35.027Z,12.23
2023-05-14T17:34:02.896Z,9.65
2023-05-14T17:36:32.344Z,10.07
2023-05-14T17:38:59.994Z,10.50
2023-05-14T17:41:27.539Z,11.93
2023-05-14T17:43:54.947Z,9.00
2023-05-14T17:46:23.147Z,13.27
2023-05-14T17:48:50.669Z,15.90
2023-05-14T17:51:18.184Z,11.52
2023-05-14T17:53:46.335Z,12.20
2023-05-14T17:56:13.835Z,9.05
2023-05-14T17:58:41.722Z,9.93
2023-05-14T18:01:09.335Z,10.35
2023-05-14T18:03:37.150Z,10.85
2023-05-14T18:06:05.034Z,9.80
2023-05-14T18:08:32.670Z,9.93
2023-05-14T18:11:00.905Z,11.35
2023-05-14T18:13:28.571Z,9.13
2023-05-14T18:15:56.589Z,10.88
2023-05-14T18:18:24.293Z,15.02
2023-05-14T18:20:52.137Z,14.00
2023-05-14T18:23:20.006Z,21.85
2023-05-14T18:25:48.393Z,24.13
2023-05-14T18:28:16.007Z,23.50
2023-05-14T18:30:45.266Z,24.05
2023-05-14T18:33:12.937Z,26.15
2023-05-14T18:35:43.413Z,26.13
2023-05-14T18:38:12.403Z,27.20
2023-05-14T18:40:39.922Z,29.38
2023-05-14T18:43:07.603Z,28.15
2023-05-14T18:45:35.229Z,29.95
2023-05-14T18:48:02.753Z,33.70
2023-05-14T18:50:30.667Z,33.47
2023-05-14T18:52:58.092Z,38.25
2023-05-14T18:55:26.014Z,38.05
2023-05-14T18:57:53.872Z,36.13
2023-05-14T19:00:21.387Z,39.28
2023-05-14T19:02:49.190Z,38.47
2023-05-14T19:05:16.978Z,39.38
2023-05-14T19:07:47.862Z,38.05
2023-05-14T19:12:43.577Z,34.83
2023-05-14T19:15:11.694Z,35.90
2023-05-14T19:17:40.245Z,43.05
2023-05-14T19:20:08.703Z,45.38
2023-05-14T19:22:36.416Z,40.22
2023-05-14T19:25:05.153Z,41.92
2023-05-14T19:27:33.399Z,42.25
2023-05-14T19:30:00.905Z,45.33
2023-05-14T19:32:28.417Z,41.10
2023-05-14T19:34:56.213Z,39.38
2023-05-14T19:37:24.208Z,40.90
2023-05-14T19:39:51.812Z,40.92
2023-05-14T19:42:19.445Z,36.05
2023-05-14T19:44:47.129Z,38.65
2023-05-14T19:47:15.049Z,43.03
2023-05-14T19:49:42.705Z,41.33
2023-05-14T19:52:11.414Z,42.53
2023-05-14T19:54:39.110Z,42.40
2023-05-14T19:57:06.914Z,42.53
2023-05-14T19:59:34.776Z,41.20
2023-05-14T20:02:02.443Z,48.17
2023-05-14T20:04:30.170Z,40.70
2023-05-14T20:06:58.448Z,46.75
2023-05-14T20:09:26.094Z,41.13
2023-05-14T20:11:53.684Z,40.75
2023-05-14T20:14:21.376Z,43.05
2023-05-14T20:16:49.111Z,42.70
2023-05-14T20:19:16.875Z,38.22
2023-05-14T20:21:44.449Z,41.47
2023-05-14T20:24:12.206Z,36.08
2023-05-14T20:26:39.732Z,36.22
2023-05-14T20:29:07.229Z,34.40
2023-05-14T20:31:35.122Z,35.38
2023-05-14T20:34:03.536Z,37.20
2023-05-14T20:36:31.753Z,28.15
2023-05-14T20:39:00.445Z,34.75
2023-05-14T20:41:27.962Z,34.67
2023-05-14T20:43:55.586Z,28.33
2023-05-14T20:46:23.210Z,29.73
2023-05-14T20:48:51.867Z,34.00
2023-05-14T20:51:19.379Z,28.15
2023-05-14T20:53:47.179Z,29.63
2023-05-14T20:56:14.895Z,27.92
2023-05-14T20:58:42.363Z,24.73
2023-05-14T21:01:10.005Z,28.58
2023-05-14T21:03:37.714Z,27.92
2023-05-14T21:06:05.588Z,23.63
2023-05-14T21:08:34.949Z,25.40
2023-05-14T21:11:02.378Z,21.63
2023-05-14T21:13:29.790Z,23.38
2023-05-14T21:15:57.415Z,24.40
2023-05-14T21:18:27.000Z,22.40
2023-05-14T21:20:54.569Z,19.83
2023-05-14T21:23:22.031Z,16.20
2023-05-14T21:25:49.477Z,15.10
2023-05-14T21:28:16.999Z,15.75
2023-05-14T21:30:44.361Z,11.23
2023-05-14T21:33:11.800Z,11.50
2023-05-14T21:35:39.343Z,11.18
2023-05-14T21:38:08.871Z,11.10
2023-05-14T21:40:36.354Z,10.70
2023-05-14T21:43:03.781Z,9.35
2023-05-14T21:45:31.797Z,10.43
2023-05-14T21:47:59.470Z,11.73
2023-05-14T21:50:27.108Z,7.97
2023-05-14T21:52:55.376Z,8.52
2023-05-14T21:55:23.436Z,8.27
2023-05-14T21:57:51.409Z,7.00
2023-05-14T22:00:23.344Z,6.25
2023-05-14T22:02:52.892Z,6.40
2023-05-14T22:05:22.432Z,5.75
2023-05-14T22:07:50.426Z,6.93
2023-05-14T22:10:18.704Z,5.18
2023-05-14T22:12:46.335Z,5.03
2023-05-14T22:15:14.095Z,5.15
2023-05-14T22:17:42.432Z,4.45
2023-05-14T22:20:10.477Z,6.10
2023-05-14T22:22:39.506Z,5.38
2023-05-14T22:25:07.624Z,4.30
2023-05-14T22:27:35.140Z,4.72
2023-05-14T22:30:02.877Z,3.22
2023-05-14T22:32:30.582Z,3.63
2023-05-14T22:34:58.226Z,5.68
2023-05-14T22:37:25.903Z,4.38
2023-05-14T22:39:53.385Z,9.02
2023-05-14T22:42:20.952Z,4.65
2023-05-14T22:44:48.562Z,2.85
2023-05-14T22:47:16.477Z,4.88
2023-05-14T22:49:44.275Z,4.82
2023-05-14T22:52:11.857Z,2.75
2023-05-14T22:54:39.442Z,2.38
2023-05-14T22:57:07.688Z,4.05
2023-05-14T22:59:35.432Z,2.80
2023-05-14T23:02:03.148Z,3.40
2023-05-14T23:04:31.045Z,6.72
2023-05-14T23:06:58.793Z,2.63
2023-05-14T23:09:26.723Z,4.60
2023-05-14T23:11:54.228Z,2.20
2023-05-14T23:14:22.627Z,2.97
2023-05-14T23:16:50.233Z,2.90
2023-05-14T23:19:17.923Z,3.15
2023-05-14T23:21:45.649Z,2.65
2023-05-14T23:24:13.191Z,3.30
2023-05-14T23:26:40.862Z,4.40
2023-05-14T23:29:08.999Z,3.72
2023-05-14T23:31:36.983Z,4.03
2023-05-14T23:34:04.427Z,3.47
2023-05-14T23:36:32.604Z,3.47
2023-05-14T23:39:00.475Z,4.30
2023-05-14T23:41:28.239Z,4.22
2023-05-14T23:43:55.992Z,2.58
2023-05-14T23:46:24.134Z,3.55
2023-05-14T23:48:52.252Z,4.60
2023-05-14T23:51:19.981Z,3.85
2023-05-14T23:53:48.237Z,6.55
2023-05-14T23:56:16.650Z,3.63
2023-05-14T23:58:44.576Z,4.07
